Time;durP1;ratioP1;P1;durP2;ratioP2;P2;SDS_P1;SDS_P2;PMS_P1;PMS_P2;Temp;Humidity;BMP_temperature;BMP_pressure;BME280_temperature;BME280_humidity;BME280_pressure;Samples;Min_cycle;Max_cycle;Signal;HPM_P1;HPM_P2
2022/03/26 00:01:49;;;;;;;;;;;7.70;56.90;;;;;;5062237;28;19924;-63
2022/03/26 00:04:15;;;;;;;;;;;7.70;57.30;;;;;;5062371;28;19915;-64
2022/03/26 00:06:41;;;;;;;;;;;7.60;57.60;;;;;;5062327;28;20184;-63
2022/03/26 00:09:06;;;;;;;;;;;7.50;58.10;;;;;;5062183;28;19916;-62
2022/03/26 00:11:32;;;;;;;;;;;7.50;58.40;;;;;;5062150;28;19931;-64
2022/03/26 00:13:58;;;;;;;;;;;7.40;58.70;;;;;;5062520;28;19987;-64
2022/03/26 00:16:23;;;;;;;;;;;7.40;59.00;;;;;;5062314;28;19915;-65
2022/03/26 00:18:49;;;;;;;;;;;7.30;59.50;;;;;;5062288;28;19915;-64
2022/03/26 00:21:15;;;;;;;;;;;7.30;59.80;;;;;;5061948;28;20204;-64
2022/03/26 00:23:40;;;;;;;;;;;7.30;59.90;;;;;;5062131;28;19909;-65
2022/03/26 00:26:10;;;;;;;;;;;7.30;60.10;;;;;;5062267;28;19912;-65
2022/03/26 00:28:37;;;;;;;;;;;7.20;60.30;;;;;;5062266;28;19909;-65
2022/03/26 00:31:04;;;;;;;;;;;7.30;60.40;;;;;;5061989;28;19989;-64
2022/03/26 00:33:30;;;;;;;;;;;7.30;60.40;;;;;;5062257;28;19979;-65
2022/03/26 00:35:56;;;;;;;;;;;7.30;60.50;;;;;;5062467;28;19955;-65
2022/03/26 00:38:22;;;;;;;;;;;7.20;60.60;;;;;;5062218;28;19912;-65
2022/03/26 00:40:48;;;;;;;;;;;7.20;60.90;;;;;;5061919;28;19916;-66
2022/03/26 00:43:14;;;;;;;;;;;7.30;60.90;;;;;;5062355;28;19932;-64
2022/03/26 00:45:40;;;;;;;;;;;7.30;61.10;;;;;;5062278;28;19987;-65
2022/03/26 00:48:06;;;;;;;;;;;7.20;61.30;;;;;;5062131;28;20092;-65
2022/03/26 00:50:32;;;;;;;;;;;7.20;61.70;;;;;;5062023;28;19992;-65
2022/03/26 00:52:58;;;;;;;;;;;7.10;61.70;;;;;;5060804;28;19917;-65
2022/03/26 00:55:24;;;;;;;;;;;7.10;61.90;;;;;;5061274;28;19908;-65
2022/03/26 00:57:50;;;;;;;;;;;7.10;62.20;;;;;;5063395;28;19913;-65
2022/03/26 01:00:15;;;;;;;;;;;7.10;62.40;;;;;;5065850;28;20431;-65
2022/03/26 01:02:41;;;;;;;;;;;7.10;62.50;;;;;;5065411;28;20204;-65
2022/03/26 01:05:07;;;;;;;;;;;7.00;62.90;;;;;;5065634;28;19980;-65
2022/03/26 01:07:33;;;;;;;;;;;7.00;63.00;;;;;;5065589;28;19965;-65
2022/03/26 01:09:59;;;;;;;;;;;7.00;63.40;;;;;;5065391;28;20143;-65
2022/03/26 01:12:25;;;;;;;;;;;6.90;63.70;;;;;;5065240;28;19915;-65
2022/03/26 01:14:51;;;;;;;;;;;7.00;63.80;;;;;;5065567;28;19947;-64
2022/03/26 01:17:16;;;;;;;;;;;6.90;64.60;;;;;;5064261;28;19944;-64
2022/03/26 01:19:43;;;;;;;;;;;6.90;64.00;;;;;;5065452;28;19952;-65
2022/03/26 01:22:08;;;;;;;;;;;6.90;64.30;;;;;;5065351;28;19971;-64
2022/03/26 01:24:34;;;;;;;;;;;6.80;64.80;;;;;;5065124;28;20219;-65
2022/03/26 01:27:00;;;;;;;;;;;6.80;65.00;;;;;;5065185;28;19917;-64
2022/03/26 01:29:25;;;;;;;;;;;6.70;65.10;;;;;;5065257;28;19951;-65
2022/03/26 01:31:51;;;;;;;;;;;6.80;65.30;;;;;;5066996;28;19983;-64
2022/03/26 01:34:17;;;;;;;;;;;6.70;65.70;;;;;;5085138;28;19908;-65
2022/03/26 01:36:43;;;;;;;;;;;6.70;65.80;;;;;;5085334;28;19923;-64
2022/03/26 01:39:09;;;;;;;;;;;6.60;66.10;;;;;;5084695;28;20169;-65
2022/03/26 01:41:35;;;;;;;;;;;6.70;66.30;;;;;;5085064;28;19908;-65
2022/03/26 01:44:00;;;;;;;;;;;6.60;66.70;;;;;;5085079;28;20231;-65
2022/03/26 01:46:26;;;;;;;;;;;6.60;67.10;;;;;;5083867;28;19920;-65
2022/03/26 01:48:52;;;;;;;;;;;6.60;67.30;;;;;;5084787;28;19938;-64
2022/03/26 01:51:18;;;;;;;;;;;6.70;67.50;;;;;;5084683;28;20088;-64
2022/03/26 01:53:50;;;;;;;;;;;6.60;67.90;;;;;;5078420;28;19909;-65
2022/03/26 01:56:16;;;;;;;;;;;6.50;68.20;;;;;;5064840;28;19915;-65
2022/03/26 01:58:42;;;;;;;;;;;6.40;68.70;;;;;;5064657;28;20227;-64
2022/03/26 02:01:08;;;;;;;;;;;6.30;69.20;;;;;;5063144;28;20199;-65
2022/03/26 02:03:34;;;;;;;;;;;6.30;69.60;;;;;;5063451;28;19908;-64
2022/03/26 02:05:59;;;;;;;;;;;6.30;69.80;;;;;;5064622;28;20212;-65
2022/03/26 02:08:25;;;;;;;;;;;6.20;70.20;;;;;;5063731;28;20093;-65
2022/03/26 02:10:51;;;;;;;;;;;6.20;70.10;;;;;;5063518;28;19915;-64
2022/03/26 02:13:16;;;;;;;;;;;6.10;70.90;;;;;;5064432;28;20135;-65
2022/03/26 02:15:43;;;;;;;;;;;6.00;71.40;;;;;;5064332;28;19923;-65
2022/03/26 02:18:09;;;;;;;;;;;5.90;72.80;;;;;;5064259;28;19917;-65
2022/03/26 02:20:35;;;;;;;;;;;5.80;74.10;;;;;;5064313;28;19913;-64
2022/03/26 02:23:01;;;;;;;;;;;5.80;73.70;;;;;;5064299;28;20092;-63
2022/03/26 02:25:27;;;;;;;;;;;5.60;74.30;;;;;;5063978;28;19909;-64
2022/03/26 02:27:53;;;;;;;;;;;5.60;74.50;;;;;;5064092;28;19923;-64
2022/03/26 02:30:20;;;;;;;;;;;5.40;74.90;;;;;;5064635;28;19917;-64
2022/03/26 02:32:46;;;;;;;;;;;5.40;75.30;;;;;;5063774;28;19908;-64
2022/03/26 02:35:11;;;;;;;;;;;5.40;75.50;;;;;;5064134;28;20008;-65
2022/03/26 02:37:37;;;;;;;;;;;5.30;76.30;;;;;;5086175;22;19921;-72
2022/03/26 02:40:06;;;;;;;;;;;5.20;76.60;;;;;;5063881;28;20207;-72
2022/03/26 02:42:32;;;;;;;;;;;5.20;76.40;;;;;;5048644;28;20211;-72
2022/03/26 02:44:58;;;;;;;;;;;5.20;76.70;;;;;;5083969;28;19931;-72
2022/03/26 02:47:24;;;;;;;;;;;5.20;76.90;;;;;;5058741;28;20251;-72
2022/03/26 02:49:50;;;;;;;;;;;5.10;77.00;;;;;;5028784;28;19951;-71
2022/03/26 02:52:15;;;;;;;;;;;5.20;77.00;;;;;;5053692;28;19940;-71
2022/03/26 02:54:41;;;;;;;;;;;5.20;76.50;;;;;;5062532;28;19979;-71
2022/03/26 02:57:07;;;;;;;;;;;5.30;76.40;;;;;;5045879;28;20231;-71
2022/03/26 02:59:33;;;;;;;;;;;5.30;76.30;;;;;;5063530;28;19954;-72
2022/03/26 03:01:59;;;;;;;;;;;5.40;76.60;;;;;;5056370;28;19916;-72
2022/03/26 03:04:24;;;;;;;;;;;5.40;76.90;;;;;;5055091;28;19915;-73
2022/03/26 03:06:51;;;;;;;;;;;5.40;77.00;;;;;;5054866;28;19992;-72
2022/03/26 03:09:17;;;;;;;;;;;5.40;76.90;;;;;;5062229;28;19930;-72
2022/03/26 03:11:43;;;;;;;;;;;5.40;77.00;;;;;;5061959;28;19909;-72
2022/03/26 03:14:10;;;;;;;;;;;5.50;77.10;;;;;;5062040;28;20258;-73
2022/03/26 03:16:36;;;;;;;;;;;5.40;77.50;;;;;;5063173;28;19956;-72
2022/03/26 03:19:05;;;;;;;;;;;5.20;78.00;;;;;;5045472;28;19958;-72
2022/03/26 03:21:31;;;;;;;;;;;5.10;78.30;;;;;;5062532;28;19909;-72
2022/03/26 03:23:57;;;;;;;;;;;5.00;78.30;;;;;;5063190;28;19917;-73
2022/03/26 03:26:23;;;;;;;;;;;4.90;78.60;;;;;;5061742;28;20023;-72
2022/03/26 03:28:48;;;;;;;;;;;4.80;79.40;;;;;;5063006;28;19915;-72
2022/03/26 03:31:14;;;;;;;;;;;4.70;79.80;;;;;;5062779;28;20247;-72
2022/03/26 03:33:40;;;;;;;;;;;4.70;79.40;;;;;;5061861;28;19915;-72
2022/03/26 03:36:06;;;;;;;;;;;4.70;79.70;;;;;;5061787;28;19909;-72
2022/03/26 03:38:32;;;;;;;;;;;4.60;79.90;;;;;;5061684;28;20326;-72
2022/03/26 03:40:58;;;;;;;;;;;4.60;80.00;;;;;;5061344;28;20242;-72
2022/03/26 03:43:24;;;;;;;;;;;4.60;80.20;;;;;;5054321;28;19909;-72
2022/03/26 03:45:49;;;;;;;;;;;4.70;80.20;;;;;;5042681;28;20267;-72
2022/03/26 03:48:15;;;;;;;;;;;4.70;80.70;;;;;;5041687;28;19980;-71
2022/03/26 03:50:41;;;;;;;;;;;4.70;80.40;;;;;;5041446;28;19932;-71
2022/03/26 03:53:07;;;;;;;;;;;4.70;80.70;;;;;;5042732;28;19924;-71
2022/03/26 03:55:32;;;;;;;;;;;4.60;81.10;;;;;;5055627;28;19915;-72
2022/03/26 03:57:58;;;;;;;;;;;4.50;81.30;;;;;;5062690;28;19909;-71
2022/03/26 04:00:24;;;;;;;;;;;4.50;81.10;;;;;;5062907;28;20270;-72
2022/03/26 04:02:49;;;;;;;;;;;4.40;81.40;;;;;;5038681;28;19909;-71
2022/03/26 04:05:15;;;;;;;;;;;4.40;81.40;;;;;;5042581;28;19936;-71
2022/03/26 04:07:41;;;;;;;;;;;4.30;81.80;;;;;;5041402;28;19919;-71
2022/03/26 04:10:07;;;;;;;;;;;4.30;82.10;;;;;;5041271;28;19917;-72
2022/03/26 04:12:38;;;;;;;;;;;4.10;82.30;;;;;;5041169;28;19916;-71
2022/03/26 04:15:05;;;;;;;;;;;4.10;82.40;;;;;;5042376;28;19916;-72
2022/03/26 04:17:32;;;;;;;;;;;4.10;82.40;;;;;;5041342;28;20226;-72
2022/03/26 04:19:58;;;;;;;;;;;4.10;82.70;;;;;;5041334;28;19909;-72
2022/03/26 04:22:24;;;;;;;;;;;4.00;83.10;;;;;;5042148;28;19910;-71
2022/03/26 04:24:49;;;;;;;;;;;4.00;83.20;;;;;;5042147;28;20204;-70
2022/03/26 04:27:15;;;;;;;;;;;3.90;83.50;;;;;;5042193;28;20089;-72
2022/03/26 04:29:41;;;;;;;;;;;3.90;83.50;;;;;;5041283;28;19916;-72
2022/03/26 04:32:07;;;;;;;;;;;3.90;83.70;;;;;;5042425;28;19999;-72
2022/03/26 04:34:32;;;;;;;;;;;3.90;83.90;;;;;;5046480;28;20218;-71
2022/03/26 04:36:58;;;;;;;;;;;3.80;83.80;;;;;;5046605;28;20050;-71
2022/03/26 04:39:24;;;;;;;;;;;3.80;83.80;;;;;;5046261;28;19927;-71
2022/03/26 04:41:49;;;;;;;;;;;3.90;83.90;;;;;;5045941;28;19909;-71
2022/03/26 04:44:15;;;;;;;;;;;3.80;83.80;;;;;;5046291;28;20151;-70
2022/03/26 04:46:41;;;;;;;;;;;3.90;83.60;;;;;;5045924;28;20200;-70
2022/03/26 04:49:07;;;;;;;;;;;3.90;83.90;;;;;;5046095;28;20123;-71
2022/03/26 04:51:32;;;;;;;;;;;3.90;83.70;;;;;;5044661;28;19972;-71
2022/03/26 04:53:58;;;;;;;;;;;3.90;83.40;;;;;;5046785;28;20231;-72
2022/03/26 04:56:24;;;;;;;;;;;4.00;83.10;;;;;;5065601;28;19975;-71
2022/03/26 04:58:50;;;;;;;;;;;4.00;83.10;;;;;;5065886;28;19916;-72
2022/03/26 05:01:15;;;;;;;;;;;3.90;83.10;;;;;;5065671;28;20085;-71
2022/03/26 05:03:44;;;;;;;;;;;3.80;83.80;;;;;;5064634;28;19916;-71
2022/03/26 05:06:10;;;;;;;;;;;3.80;83.90;;;;;;5065682;28;20223;-72
2022/03/26 05:08:35;;;;;;;;;;;3.80;83.90;;;;;;5065686;28;19908;-71
2022/03/26 05:11:01;;;;;;;;;;;3.80;84.00;;;;;;5065157;28;20246;-72
2022/03/26 05:13:27;;;;;;;;;;;3.70;84.40;;;;;;5065629;28;19916;-72
2022/03/26 05:15:52;;;;;;;;;;;3.70;84.50;;;;;;5065620;28;19909;-71
2022/03/26 05:18:18;;;;;;;;;;;3.80;84.20;;;;;;5065510;28;20203;-71
2022/03/26 05:20:44;;;;;;;;;;;3.80;84.00;;;;;;5065140;28;19916;-71
2022/03/26 05:23:09;;;;;;;;;;;3.90;83.80;;;;;;5065368;28;20019;-70
2022/03/26 05:25:36;;;;;;;;;;;3.90;83.90;;;;;;5065008;28;19971;-71
2022/03/26 05:28:02;;;;;;;;;;;4.00;83.50;;;;;;5064164;28;20159;-70
2022/03/26 05:30:28;;;;;;;;;;;4.00;83.50;;;;;;5065225;28;19966;-70
2022/03/26 05:32:54;;;;;;;;;;;4.00;83.20;;;;;;5065187;28;19909;-71
2022/03/26 05:35:21;;;;;;;;;;;4.00;83.50;;;;;;5065164;28;20192;-71
2022/03/26 05:37:47;;;;;;;;;;;4.00;83.60;;;;;;5063757;28;19924;-72
2022/03/26 05:40:16;;;;;;;;;;;3.90;83.70;;;;;;5054897;28;19913;-72
2022/03/26 05:42:42;;;;;;;;;;;3.90;83.90;;;;;;5055006;28;20219;-72
2022/03/26 05:45:09;;;;;;;;;;;3.90;83.80;;;;;;5053429;28;19909;-72
2022/03/26 05:47:35;;;;;;;;;;;4.00;83.90;;;;;;5047161;28;19966;-71
2022/03/26 05:50:01;;;;;;;;;;;4.00;83.80;;;;;;5064012;28;19909;-71
2022/03/26 05:52:27;;;;;;;;;;;4.10;83.50;;;;;;5064650;28;19916;-71
2022/03/26 05:54:52;;;;;;;;;;;4.00;83.70;;;;;;5063937;28;19916;-71
2022/03/26 05:57:18;;;;;;;;;;;4.10;83.50;;;;;;5060126;28;20199;-71
2022/03/26 05:59:45;;;;;;;;;;;4.20;83.40;;;;;;5052304;28;19951;-71
2022/03/26 06:02:13;;;;;;;;;;;4.20;83.40;;;;;;5049948;28;19909;-71
2022/03/26 06:04:42;;;;;;;;;;;4.20;83.40;;;;;;5057944;28;19915;-71
2022/03/26 06:07:08;;;;;;;;;;;4.30;83.30;;;;;;5064581;28;19925;-73
2022/03/26 06:09:35;;;;;;;;;;;4.30;83.10;;;;;;5063351;28;19916;-73
2022/03/26 06:12:01;;;;;;;;;;;4.40;82.90;;;;;;5065536;28;19944;-73
2022/03/26 06:14:26;;;;;;;;;;;4.50;82.80;;;;;;5065065;28;19986;-73
2022/03/26 06:16:52;;;;;;;;;;;4.50;82.90;;;;;;5065505;28;20097;-73
2022/03/26 06:19:18;;;;;;;;;;;4.50;83.30;;;;;;5064547;28;19915;-73
2022/03/26 06:21:43;;;;;;;;;;;4.60;82.70;;;;;;5047776;28;19916;-73
2022/03/26 06:24:09;;;;;;;;;;;4.60;83.10;;;;;;5064258;28;19909;-73
2022/03/26 06:26:37;;;;;;;;;;;4.60;83.00;;;;;;5061416;28;19917;-72
2022/03/26 06:29:03;;;;;;;;;;;4.60;82.90;;;;;;5054730;28;19944;-72
2022/03/26 06:31:29;;;;;;;;;;;4.80;82.30;;;;;;5057784;28;20207;-73
2022/03/26 06:33:55;;;;;;;;;;;4.70;82.30;;;;;;5055680;28;19951;-73
2022/03/26 06:36:21;;;;;;;;;;;4.80;82.10;;;;;;5058518;28;19917;-72
2022/03/26 06:38:47;;;;;;;;;;;4.90;81.70;;;;;;5056550;28;19967;-73
2022/03/26 06:41:13;;;;;;;;;;;5.00;81.40;;;;;;5053204;28;19959;-72
2022/03/26 06:43:39;;;;;;;;;;;5.20;80.60;;;;;;5045956;28;19913;-73
2022/03/26 06:46:05;;;;;;;;;;;5.20;80.00;;;;;;5071808;28;19917;-73
2022/03/26 06:48:31;;;;;;;;;;;5.30;79.70;;;;;;5060719;28;19913;-73
2022/03/26 06:50:57;;;;;;;;;;;5.30;79.80;;;;;;5052345;28;20188;-73
2022/03/26 06:53:23;;;;;;;;;;;5.40;80.20;;;;;;5027891;28;19919;-72
2022/03/26 06:55:49;;;;;;;;;;;5.40;79.60;;;;;;5054554;28;19916;-72
2022/03/26 06:58:15;;;;;;;;;;;5.40;80.00;;;;;;5054759;28;19958;-70
2022/03/26 07:00:40;;;;;;;;;;;5.40;80.50;;;;;;5040650;28;19916;-71
2022/03/26 07:03:06;;;;;;;;;;;5.50;80.70;;;;;;5058689;28;20200;-70
2022/03/26 07:05:32;;;;;;;;;;;5.40;80.40;;;;;;5055508;28;19917;-70
2022/03/26 07:07:57;;;;;;;;;;;5.50;80.50;;;;;;5063425;28;19912;-72
2022/03/26 07:10:23;;;;;;;;;;;5.60;80.20;;;;;;5063263;28;19946;-72
2022/03/26 07:12:49;;;;;;;;;;;5.80;80.00;;;;;;5057685;28;20116;-71
2022/03/26 07:15:15;;;;;;;;;;;5.90;79.40;;;;;;5059710;28;20218;-71
2022/03/26 07:17:43;;;;;;;;;;;6.00;79.20;;;;;;5058682;28;19948;-71
2022/03/26 07:20:10;;;;;;;;;;;6.00;79.40;;;;;;5059460;28;19908;-72
2022/03/26 07:22:35;;;;;;;;;;;6.10;78.70;;;;;;5059028;28;19909;-72
2022/03/26 07:25:04;;;;;;;;;;;6.20;78.10;;;;;;5049304;28;19999;-71
2022/03/26 07:27:33;;;;;;;;;;;6.40;77.80;;;;;;5061666;28;20093;-72
2022/03/26 07:29:59;;;;;;;;;;;6.50;76.90;;;;;;5061144;28;20204;-73
2022/03/26 07:32:25;;;;;;;;;;;6.70;76.60;;;;;;5061441;28;19959;-73
2022/03/26 07:34:52;;;;;;;;;;;6.70;76.30;;;;;;5061271;28;19912;-74
2022/03/26 07:37:18;;;;;;;;;;;6.80;76.40;;;;;;5061826;28;20265;-77
2022/03/26 07:39:43;;;;;;;;;;;6.90;76.50;;;;;;5063101;28;19979;-78
2022/03/26 07:42:09;;;;;;;;;;;7.10;75.80;;;;;;5055140;28;19909;-79
2022/03/26 07:44:35;;;;;;;;;;;7.10;75.50;;;;;;5056594;28;19976;-79
2022/03/26 07:47:01;;;;;;;;;;;7.10;76.00;;;;;;5061918;28;19913;-71
2022/03/26 07:49:27;;;;;;;;;;;7.10;75.60;;;;;;5062533;28;19917;-72
2022/03/26 07:51:52;;;;;;;;;;;7.20;75.60;;;;;;5058608;28;19916;-72
2022/03/26 07:54:18;;;;;;;;;;;7.30;75.40;;;;;;5062496;28;19909;-71
2022/03/26 07:56:44;;;;;;;;;;;7.40;75.30;;;;;;5059004;28;20223;-72
2022/03/26 07:59:10;;;;;;;;;;;7.50;75.00;;;;;;5049759;28;20281;-71
2022/03/26 08:01:35;;;;;;;;;;;7.70;75.40;;;;;;5056028;28;19913;-71
2022/03/26 08:04:01;;;;;;;;;;;7.80;74.00;;;;;;5056398;28;19913;-70
2022/03/26 08:06:27;;;;;;;;;;;7.80;73.80;;;;;;5053772;28;19928;-71
2022/03/26 08:08:53;;;;;;;;;;;7.90;73.70;;;;;;5056520;28;20251;-71
2022/03/26 08:11:19;;;;;;;;;;;8.00;73.50;;;;;;5059483;28;20147;-68
2022/03/26 08:13:44;;;;;;;;;;;8.20;73.10;;;;;;5062364;28;19913;-72
2022/03/26 08:16:10;;;;;;;;;;;8.50;72.80;;;;;;5061402;28;19908;-71
2022/03/26 08:18:36;;;;;;;;;;;8.60;71.20;;;;;;5060919;28;19909;-71
2022/03/26 08:21:02;;;;;;;;;;;8.70;71.40;;;;;;5061221;28;19917;-72
2022/03/26 08:23:28;;;;;;;;;;;8.90;71.20;;;;;;5062339;28;19920;-71
2022/03/26 08:28:38;;;;;;;;;;;9.20;70.50;;;;;;5061331;28;19916;-71
2022/03/26 08:31:04;;;;;;;;;;;9.40;69.70;;;;;;5061408;28;19909;-70
2022/03/26 08:33:29;;;;;;;;;;;9.60;69.20;;;;;;5061036;28;19909;-73
2022/03/26 08:35:55;;;;;;;;;;;9.70;68.70;;;;;;5062200;28;19909;-73
2022/03/26 08:38:21;;;;;;;;;;;9.70;68.20;;;;;;5060776;28;19919;-73
2022/03/26 08:40:47;;;;;;;;;;;9.80;68.70;;;;;;5060466;28;19932;-73
2022/03/26 08:43:13;;;;;;;;;;;9.90;68.00;;;;;;5061951;28;20174;-73
2022/03/26 08:45:40;;;;;;;;;;;10.00;68.20;;;;;;5061785;28;19908;-73
2022/03/26 08:48:06;;;;;;;;;;;10.20;66.90;;;;;;5061768;28;19909;-73
2022/03/26 08:50:32;;;;;;;;;;;10.20;66.40;;;;;;5044249;28;20190;-73
2022/03/26 08:52:58;;;;;;;;;;;10.40;65.90;;;;;;5026785;28;19971;-73
2022/03/26 08:55:24;;;;;;;;;;;10.60;66.50;;;;;;5059631;28;19909;-73
2022/03/26 08:57:50;;;;;;;;;;;10.60;64.80;;;;;;5060818;28;19951;-73
2022/03/26 09:00:17;;;;;;;;;;;10.80;65.40;;;;;;5061545;28;19916;-72
2022/03/26 09:02:44;;;;;;;;;;;10.80;65.60;;;;;;5044174;28;19909;-74
2022/03/26 09:05:12;;;;;;;;;;;11.00;66.40;;;;;;5060639;28;19925;-72
2022/03/26 09:07:38;;;;;;;;;;;11.10;65.20;;;;;;5061554;28;19948;-73
2022/03/26 09:10:04;;;;;;;;;;;11.10;64.40;;;;;;5061669;28;19909;-72
2022/03/26 09:12:30;;;;;;;;;;;11.30;64.80;;;;;;5061209;28;19915;-73
2022/03/26 09:14:55;;;;;;;;;;;11.50;65.20;;;;;;5061670;28;19989;-73
2022/03/26 09:17:21;;;;;;;;;;;11.50;64.10;;;;;;5061531;28;19909;-73
2022/03/26 09:19:47;;;;;;;;;;;11.60;62.20;;;;;;5063472;28;20346;-73
2022/03/26 09:22:12;;;;;;;;;;;11.80;61.90;;;;;;5058022;28;20116;-72
2022/03/26 09:24:38;;;;;;;;;;;11.80;61.70;;;;;;5045250;28;20196;-73
2022/03/26 09:27:04;;;;;;;;;;;12.10;60.70;;;;;;5063751;28;19919;-75
2022/03/26 09:29:29;;;;;;;;;;;12.20;60.00;;;;;;5065713;28;19908;-76
2022/03/26 09:31:55;;;;;;;;;;;12.30;59.70;;;;;;5066293;28;19908;-74
2022/03/26 09:34:21;;;;;;;;;;;12.50;59.30;;;;;;5068415;28;19916;-74
2022/03/26 09:36:47;;;;;;;;;;;12.60;58.30;;;;;;5067714;28;19924;-75
2022/03/26 09:39:13;;;;;;;;;;;12.50;58.10;;;;;;5048690;28;19909;-74
2022/03/26 09:41:39;;;;;;;;;;;12.60;57.90;;;;;;5046920;28;19967;-73
2022/03/26 09:44:05;;;;;;;;;;;12.80;57.30;;;;;;5063601;28;20085;-74
2022/03/26 09:46:32;;;;;;;;;;;12.90;58.00;;;;;;5064938;28;20226;-73
2022/03/26 09:48:57;;;;;;;;;;;13.00;57.50;;;;;;5063897;28;19908;-72
2022/03/26 09:51:24;;;;;;;;;;;13.00;57.30;;;;;;5064783;28;19916;-74
2022/03/26 09:53:50;;;;;;;;;;;13.30;57.60;;;;;;5062886;28;20103;-70
2022/03/26 09:56:16;;;;;;;;;;;13.20;55.50;;;;;;5062294;28;19943;-70
2022/03/26 09:58:42;;;;;;;;;;;13.40;56.50;;;;;;5063628;28;19923;-70
2022/03/26 10:01:08;;;;;;;;;;;13.70;54.00;;;;;;5064499;28;19971;-74
2022/03/26 10:03:35;;;;;;;;;;;13.90;52.40;;;;;;5066083;28;20227;-76
2022/03/26 10:06:02;;;;;;;;;;;13.90;52.80;;;;;;5064932;28;19974;-74
2022/03/26 10:08:28;;;;;;;;;;;14.00;53.00;;;;;;5063151;28;19931;-68
2022/03/26 10:10:55;;;;;;;;;;;14.00;53.10;;;;;;5063873;28;19940;-67
2022/03/26 10:13:33;;;;;;;;;;;14.20;53.20;;;;;;5049338;28;19909;-67
2022/03/26 10:16:00;;;;;;;;;;;14.30;53.80;;;;;;5044388;28;19981;-67
2022/03/26 10:18:29;;;;;;;;;;;14.70;53.70;;;;;;5047909;28;19955;-68
2022/03/26 10:20:58;;;;;;;;;;;14.80;51.60;;;;;;5052944;28;19917;-68
2022/03/26 10:23:30;;;;;;;;;;;15.00;53.10;;;;;;5057693;28;19913;-67
2022/03/26 10:26:12;;;;;;;;;;;15.10;50.50;;;;;;5057989;28;19913;-66
2022/03/26 10:28:40;;;;;;;;;;;15.10;49.40;;;;;;5061094;28;20008;-72
2022/03/26 10:34:11;;;;;;;;;;;15.40;49.30;;;;;;5056469;28;20234;-73
2022/03/26 10:36:41;;;;;;;;;;;15.50;48.80;;;;;;5053118;28;19917;-73
2022/03/26 10:39:15;;;;;;;;;;;15.80;48.70;;;;;;5026533;28;19921;-67
2022/03/26 10:41:41;;;;;;;;;;;15.90;49.00;;;;;;5042303;28;19916;-67
2022/03/26 10:44:17;;;;;;;;;;;16.10;47.20;;;;;;5043812;28;19944;-68
2022/03/26 10:46:48;;;;;;;;;;;16.30;46.90;;;;;;5044056;28;19913;-67
2022/03/26 10:49:24;;;;;;;;;;;16.60;45.00;;;;;;5043846;28;19948;-68
2022/03/26 10:51:50;;;;;;;;;;;16.80;44.40;;;;;;5043564;28;19913;-67
2022/03/26 10:54:16;;;;;;;;;;;17.00;42.70;;;;;;5057218;28;19918;-67
2022/03/26 10:56:41;;;;;;;;;;;17.00;42.60;;;;;;5063176;28;19916;-67
2022/03/26 10:59:07;;;;;;;;;;;17.10;42.30;;;;;;5062953;28;19924;-66
2022/03/26 11:01:34;;;;;;;;;;;17.30;40.10;;;;;;5059593;28;19913;-67
2022/03/26 11:04:00;;;;;;;;;;;17.40;38.60;;;;;;5055301;28;20192;-67
2022/03/26 11:06:26;;;;;;;;;;;17.50;37.30;;;;;;5061995;28;19950;-73
2022/03/26 11:08:59;;;;;;;;;;;17.70;36.90;;;;;;5062341;28;20204;-74
2022/03/26 11:11:24;;;;;;;;;;;17.80;36.30;;;;;;5061534;28;20108;-73
2022/03/26 11:13:51;;;;;;;;;;;17.90;36.60;;;;;;5045437;28;19915;-72
2022/03/26 11:16:29;;;;;;;;;;;18.10;36.80;;;;;;5062144;28;19944;-73
2022/03/26 11:19:12;;;;;;;;;;;18.30;37.50;;;;;;5062872;28;20204;-73
2022/03/26 11:22:15;;;;;;;;;;;18.50;35.70;;;;;;5062578;28;19944;-75
2022/03/26 11:24:53;;;;;;;;;;;18.60;35.90;;;;;;5061780;28;19920;-76
2022/03/26 11:28:03;;;;;;;;;;;18.90;37.90;;;;;;5042026;28;19919;-72
2022/03/26 11:30:44;;;;;;;;;;;19.40;38.60;;;;;;5040744;28;19948;-72
2022/03/26 11:33:11;;;;;;;;;;;20.10;35.00;;;;;;5024775;28;20104;-71
2022/03/26 11:35:49;;;;;;;;;;;20.10;35.10;;;;;;5041903;28;19940;-72
2022/03/26 11:38:15;;;;;;;;;;;20.30;35.00;;;;;;5043681;28;19913;-77
2022/03/26 11:40:45;;;;;;;;;;;20.80;34.00;;;;;;5027209;28;20208;-74
2022/03/26 11:43:11;;;;;;;;;;;21.10;33.40;;;;;;5041621;28;19909;-72
2022/03/26 11:51:22;;;;;;;;;;;22.30;31.50;;;;;;5042454;28;19932;-74
2022/03/26 11:53:49;;;;;;;;;;;23.10;31.00;;;;;;5049966;28;19944;-77
2022/03/26 11:56:25;;;;;;;;;;;23.70;29.70;;;;;;5040661;28;19908;-72
2022/03/26 11:59:22;;;;;;;;;;;24.90;28.40;;;;;;5041740;28;19913;-73
2022/03/26 12:01:48;;;;;;;;;;;25.90;28.10;;;;;;5029016;28;20200;-73
2022/03/26 12:04:15;;;;;;;;;;;27.40;27.10;;;;;;5042465;28;19916;-73
2022/03/26 12:06:42;;;;;;;;;;;28.40;26.30;;;;;;5042374;28;19998;-73
2022/03/26 12:09:08;;;;;;;;;;;28.90;25.00;;;;;;5042390;28;20189;-71
2022/03/26 12:11:34;;;;;;;;;;;30.80;24.70;;;;;;5041829;28;19909;-72
2022/03/26 12:14:04;;;;;;;;;;;32.10;24.10;;;;;;5040806;28;19909;-72
2022/03/26 12:16:49;;;;;;;;;;;33.20;23.60;;;;;;5042229;28;19916;-71
2022/03/26 12:19:39;;;;;;;;;;;33.20;23.30;;;;;;5041930;28;19916;-72
2022/03/26 12:22:26;;;;;;;;;;;34.20;22.80;;;;;;5041732;28;19977;-72
2022/03/26 12:24:53;;;;;;;;;;;34.40;22.50;;;;;;5054442;28;19924;-73
2022/03/26 12:27:19;;;;;;;;;;;34.50;21.90;;;;;;5053990;28;20122;-72
2022/03/26 12:29:44;;;;;;;;;;;33.90;21.80;;;;;;5048959;28;19916;-72
2022/03/26 12:32:10;;;;;;;;;;;35.20;21.90;;;;;;5051009;28;19921;-72
2022/03/26 12:34:53;;;;;;;;;;;36.60;21.50;;;;;;5047509;28;19924;-72
2022/03/26 12:37:18;;;;;;;;;;;36.50;21.00;;;;;;5054493;28;19917;-71
2022/03/26 12:39:44;;;;;;;;;;;37.00;20.80;;;;;;5054322;28;19958;-67
2022/03/26 12:42:11;;;;;;;;;;;38.10;21.30;;;;;;5059897;28;19913;-65
2022/03/26 12:44:36;;;;;;;;;;;38.30;20.80;;;;;;5053909;28;20120;-63
2022/03/26 12:47:03;;;;;;;;;;;37.70;21.20;;;;;;5058556;28;19931;-68
2022/03/26 12:49:28;;;;;;;;;;;38.00;21.00;;;;;;5052172;28;19959;-67
2022/03/26 12:51:55;;;;;;;;;;;38.00;20.80;;;;;;5050714;28;19909;-69
2022/03/26 12:54:22;;;;;;;;;;;37.90;20.90;;;;;;5058576;28;20234;-70
2022/03/26 12:56:51;;;;;;;;;;;37.90;21.00;;;;;;5056961;28;19935;-71
2022/03/26 12:59:17;;;;;;;;;;;38.40;20.60;;;;;;5065692;28;19980;-71
2022/03/26 13:01:43;;;;;;;;;;;38.20;20.80;;;;;;5055922;28;20155;-70
2022/03/26 13:04:09;;;;;;;;;;;37.50;20.20;;;;;;5057718;28;20031;-76
2022/03/26 13:06:35;;;;;;;;;;;38.80;20.20;;;;;;5063350;28;19916;-75
2022/03/26 13:09:01;;;;;;;;;;;39.80;19.70;;;;;;5039601;28;20085;-69
2022/03/26 13:11:28;;;;;;;;;;;39.70;19.70;;;;;;5059570;28;20210;-74
2022/03/26 13:13:59;;;;;;;;;;;38.10;18.90;;;;;;5065759;28;20204;-74
2022/03/26 13:16:29;;;;;;;;;;;38.40;19.30;;;;;;5056390;28;19909;-72
2022/03/26 13:19:02;;;;;;;;;;;38.90;19.60;;;;;;5049609;28;19921;-73
2022/03/26 13:21:29;;;;;;;;;;;38.90;19.30;;;;;;5046483;28;19909;-72
2022/03/26 13:23:58;;;;;;;;;;;39.20;19.40;;;;;;5045728;28;19921;-72
2022/03/26 13:26:50;;;;;;;;;;;38.70;18.70;;;;;;5057066;28;19962;-72
2022/03/26 13:29:25;;;;;;;;;;;39.80;19.00;;;;;;5060144;28;19954;-72
2022/03/26 13:31:53;;;;;;;;;;;40.90;19.10;;;;;;5066349;28;19912;-72
2022/03/26 13:34:23;;;;;;;;;;;40.90;18.60;;;;;;5066904;28;19909;-71
2022/03/26 13:36:49;;;;;;;;;;;40.90;18.40;;;;;;5049288;28;19916;-73
2022/03/26 13:39:35;;;;;;;;;;;39.60;18.60;;;;;;5066834;28;19909;-72
2022/03/26 13:42:11;;;;;;;;;;;39.50;19.10;;;;;;5066286;28;20099;-72
2022/03/26 13:44:37;;;;;;;;;;;39.20;18.80;;;;;;5067407;28;19917;-72
2022/03/26 13:47:03;;;;;;;;;;;39.80;18.50;;;;;;5064420;28;19919;-72
2022/03/26 13:49:30;;;;;;;;;;;39.70;18.50;;;;;;5065534;28;20227;-72
2022/03/26 13:52:00;;;;;;;;;;;39.20;18.80;;;;;;5065018;28;19909;-73
2022/03/26 13:54:34;;;;;;;;;;;39.30;18.90;;;;;;5063076;28;20165;-72
2022/03/26 13:57:03;;;;;;;;;;;38.80;18.80;;;;;;5059611;28;19984;-72
2022/03/26 13:59:29;;;;;;;;;;;38.40;18.90;;;;;;5064462;28;20242;-73
2022/03/26 14:01:55;;;;;;;;;;;38.70;18.90;;;;;;5063322;28;19944;-73
2022/03/26 14:04:24;;;;;;;;;;;38.60;18.90;;;;;;5064205;28;20249;-75
2022/03/26 14:06:50;;;;;;;;;;;38.80;18.90;;;;;;5064213;28;19913;-72
2022/03/26 14:09:21;;;;;;;;;;;38.20;18.70;;;;;;5064649;28;20223;-71
2022/03/26 14:11:47;;;;;;;;;;;38.60;19.00;;;;;;5062858;28;19917;-70
2022/03/26 14:14:12;;;;;;;;;;;39.10;18.80;;;;;;5064310;28;19992;-70
2022/03/26 14:16:38;;;;;;;;;;;39.20;18.70;;;;;;5064056;28;20006;-70
2022/03/26 14:19:04;;;;;;;;;;;39.80;18.50;;;;;;5064237;28;19928;-70
2022/03/26 14:21:29;;;;;;;;;;;39.50;18.30;;;;;;5064079;28;19908;-69
2022/03/26 14:23:55;;;;;;;;;;;38.00;18.40;;;;;;5056697;28;20220;-69
2022/03/26 14:26:21;;;;;;;;;;;38.00;18.80;;;;;;5057389;28;19940;-69
2022/03/26 14:28:47;;;;;;;;;;;37.70;18.70;;;;;;5043782;28;19945;-69
2022/03/26 14:31:13;;;;;;;;;;;37.00;18.80;;;;;;5053529;28;20231;-69
2022/03/26 14:33:39;;;;;;;;;;;37.30;18.90;;;;;;5051725;28;19924;-69
2022/03/26 14:36:05;;;;;;;;;;;37.10;18.80;;;;;;5042846;28;20105;-69
2022/03/26 14:38:31;;;;;;;;;;;37.00;19.10;;;;;;5043891;28;19913;-69